createdAt,value
2023-03-02T00:00:34.379Z,8.80
2023-03-02T00:01:34.396Z,9.50
2023-03-02T00:02:34.428Z,9.10
2023-03-02T00:03:34.422Z,8.50
2023-03-02T00:04:34.338Z,9.30
2023-03-02T00:05:34.372Z,9.30
2023-03-02T00:06:34.619Z,9.00
2023-03-02T00:07:34.348Z,9.50
2023-03-02T00:08:34.315Z,8.80
2023-03-02T00:09:34.342Z,9.70
2023-03-02T00:10:34.276Z,9.50
2023-03-02T00:11:34.292Z,10.00
2023-03-02T00:12:34.280Z,9.10
2023-03-02T00:13:34.282Z,9.20
2023-03-02T00:14:34.244Z,8.60
2023-03-02T00:15:34.329Z,9.10
2023-03-02T00:16:34.714Z,9.10
2023-03-02T00:17:34.228Z,9.20
2023-03-02T00:18:34.202Z,9.00
2023-03-02T00:19:34.215Z,9.40
2023-03-02T00:20:34.183Z,8.90
2023-03-02T00:21:34.213Z,10.30
2023-03-02T00:22:34.156Z,8.90
2023-03-02T00:23:34.170Z,8.80
2023-03-02T00:24:34.140Z,9.10
2023-03-02T00:25:34.149Z,9.20
2023-03-02T00:26:34.455Z,9.30
2023-03-02T00:27:34.146Z,9.00
2023-03-02T00:28:34.097Z,9.00
2023-03-02T00:29:34.118Z,9.60
2023-03-02T00:30:34.075Z,9.00
2023-03-02T00:31:34.162Z,9.30
2023-03-02T00:32:34.213Z,9.10
2023-03-02T00:33:34.094Z,8.80
2023-03-02T00:34:34.036Z,9.30
2023-03-02T00:35:34.102Z,9.10
2023-03-02T00:36:34.016Z,9.50
2023-03-02T00:37:34.148Z,9.20
2023-03-02T00:38:34.019Z,9.20
2023-03-02T00:39:34.023Z,9.20
2023-03-02T00:40:33.971Z,9.40
2023-03-02T00:41:33.996Z,9.10
2023-03-02T00:42:33.958Z,9.40
2023-03-02T00:43:33.969Z,9.40
2023-03-02T00:44:33.934Z,10.20
2023-03-02T00:45:33.965Z,9.60
2023-03-02T00:46:34.467Z,10.00
2023-03-02T00:47:33.926Z,9.30
2023-03-02T00:48:33.892Z,10.20
2023-03-02T00:49:33.912Z,10.20
2023-03-02T00:50:33.886Z,9.30
2023-03-02T00:51:33.913Z,9.70
2023-03-02T00:52:33.874Z,9.90
2023-03-02T00:53:33.863Z,9.50
2023-03-02T00:54:33.830Z,10.40
2023-03-02T00:55:33.847Z,10.70
2023-03-02T00:56:34.262Z,10.00
2023-03-02T00:57:33.852Z,9.90
2023-03-02T00:58:33.800Z,10.60
2023-03-02T00:59:33.801Z,10.00
2023-03-02T01:00:33.772Z,9.70
2023-03-02T01:01:33.785Z,10.00
2023-03-02T01:02:33.887Z,9.90
2023-03-02T01:03:33.870Z,10.00
2023-03-02T01:04:33.735Z,9.40
2023-03-02T01:05:33.748Z,10.10
2023-03-02T01:06:34.245Z,10.00
2023-03-02T01:07:33.726Z,10.10
2023-03-02T01:08:33.696Z,10.20
2023-03-02T01:09:33.742Z,9.50
2023-03-02T01:10:33.681Z,9.60
2023-03-02T01:11:33.698Z,9.80
2023-03-02T01:12:33.652Z,10.40
2023-03-02T01:13:33.676Z,9.50
2023-03-02T01:14:33.633Z,9.50
2023-03-02T01:15:33.688Z,9.20
2023-03-02T01:16:34.201Z,9.50
2023-03-02T01:17:33.650Z,9.70
2023-03-02T01:18:33.601Z,9.50
2023-03-02T01:19:33.607Z,10.10
2023-03-02T01:20:33.579Z,9.50
2023-03-02T01:21:33.615Z,9.70
2023-03-02T01:22:33.574Z,10.10
2023-03-02T01:23:33.577Z,9.60
2023-03-02T01:24:33.539Z,10.20
2023-03-02T01:25:33.550Z,9.80
2023-03-02T01:26:33.810Z,10.10
2023-03-02T01:27:33.546Z,10.00
2023-03-02T01:28:33.499Z,9.60
2023-03-02T01:29:33.511Z,9.60
2023-03-02T01:30:33.491Z,8.60
2023-03-02T01:31:33.588Z,8.70
2023-03-02T01:32:33.544Z,9.10
2023-03-02T01:33:33.502Z,9.10
2023-03-02T01:34:33.441Z,8.90
2023-03-02T01:35:33.481Z,9.10
2023-03-02T01:36:33.791Z,8.80
2023-03-02T01:37:33.431Z,9.30
2023-03-02T01:38:33.456Z,8.60
2023-03-02T01:39:33.428Z,9.20
2023-03-02T01:40:33.373Z,8.90
2023-03-02T01:41:33.387Z,8.60
2023-03-02T01:42:33.353Z,8.70
2023-03-02T01:43:33.374Z,8.80
2023-03-02T01:44:33.330Z,9.00
2023-03-02T01:45:33.396Z,8.80
2023-03-02T01:46:33.648Z,8.10
2023-03-02T01:47:33.329Z,9.00
2023-03-02T01:48:33.298Z,8.70
2023-03-02T01:49:33.315Z,8.70
2023-03-02T01:50:33.272Z,8.50
2023-03-02T01:51:33.323Z,8.60
2023-03-02T01:52:33.265Z,8.40
2023-03-02T01:53:33.278Z,8.90
2023-03-02T01:54:33.248Z,8.00
2023-03-02T01:55:33.248Z,8.40
2023-03-02T01:56:33.686Z,8.40
2023-03-02T01:57:33.255Z,8.30
2023-03-02T01:58:33.191Z,8.40
2023-03-02T01:59:33.216Z,8.60
2023-03-02T02:00:33.170Z,8.50
2023-03-02T02:01:33.190Z,8.50
2023-03-02T02:02:33.146Z,8.80
2023-03-02T02:03:33.188Z,8.70
2023-03-02T02:04:33.144Z,8.20
2023-03-02T02:05:33.148Z,8.60
2023-03-02T02:06:33.586Z,8.10
2023-03-02T02:07:33.151Z,8.30
2023-03-02T02:08:33.092Z,9.20
2023-03-02T02:09:33.131Z,8.40
2023-03-02T02:10:33.092Z,8.80
2023-03-02T02:11:33.086Z,9.00
2023-03-02T02:12:33.051Z,8.70
2023-03-02T02:13:33.062Z,8.90
2023-03-02T02:14:33.038Z,8.30
2023-03-02T02:15:33.056Z,8.90
2023-03-02T02:16:33.427Z,8.60
2023-03-02T02:17:33.024Z,8.50
2023-03-02T02:18:32.994Z,9.00
2023-03-02T02:19:33.011Z,8.80
2023-03-02T02:20:32.965Z,8.70
2023-03-02T02:21:32.996Z,8.70
2023-03-02T02:22:32.952Z,8.70
2023-03-02T02:23:32.957Z,8.80
2023-03-02T02:24:32.934Z,8.20
2023-03-02T02:25:32.924Z,9.00
2023-03-02T02:26:33.333Z,9.40
2023-03-02T02:27:32.931Z,8.40
2023-03-02T02:28:32.910Z,8.70
2023-03-02T02:29:32.918Z,9.50
2023-03-02T02:30:32.902Z,8.80
2023-03-02T02:31:32.888Z,8.90
2023-03-02T02:32:32.929Z,9.00
2023-03-02T02:33:32.861Z,8.50
2023-03-02T02:34:32.859Z,8.70
2023-03-02T02:35:32.840Z,8.80
2023-03-02T02:36:33.183Z,9.60
2023-03-02T02:37:32.800Z,8.70
2023-03-02T02:38:32.810Z,8.40
2023-03-02T02:39:32.806Z,8.70
2023-03-02T02:40:32.799Z,9.10
2023-03-02T02:41:32.755Z,8.60
2023-03-02T02:42:32.782Z,8.20
2023-03-02T02:43:32.742Z,8.60
2023-03-02T02:44:32.752Z,9.10
2023-03-02T02:45:32.758Z,8.30
2023-03-02T02:46:33.186Z,9.00
2023-03-02T02:47:32.701Z,8.70
2023-03-02T02:48:32.721Z,8.80
2023-03-02T02:49:32.673Z,8.70
2023-03-02T02:50:32.731Z,8.70
2023-03-02T02:51:32.675Z,8.50
2023-03-02T02:52:32.676Z,8.10
2023-03-02T02:53:32.633Z,8.30
2023-03-02T02:54:32.644Z,9.40
2023-03-02T02:55:32.627Z,9.10
2023-03-02T02:56:33.001Z,9.10
2023-03-02T02:57:32.646Z,9.40
2023-03-02T02:58:32.605Z,8.50
2023-03-02T02:59:32.575Z,9.00
2023-03-02T03:00:32.584Z,8.60
2023-03-02T03:01:32.610Z,9.00
2023-03-02T03:02:32.566Z,9.00
2023-03-02T03:03:32.562Z,9.10
2023-03-02T03:04:32.625Z,9.50
2023-03-02T03:05:32.532Z,9.10
2023-03-02T03:06:32.843Z,9.20
2023-03-02T03:07:32.494Z,8.20
2023-03-02T03:08:32.508Z,9.20
2023-03-02T03:09:32.606Z,9.10
2023-03-02T03:10:32.484Z,9.00
2023-03-02T03:11:32.458Z,8.90
2023-03-02T03:12:32.470Z,8.90
2023-03-02T03:13:32.433Z,8.90
2023-03-02T03:14:32.480Z,8.30
2023-03-02T03:15:32.426Z,8.50
2023-03-02T03:16:32.816Z,9.20
2023-03-02T03:17:32.406Z,8.60
2023-03-02T03:18:32.402Z,8.50
2023-03-02T03:19:32.382Z,9.10
2023-03-02T03:20:32.387Z,8.70
2023-03-02T03:21:32.429Z,9.40
2023-03-02T03:22:32.365Z,8.50
2023-03-02T03:23:32.335Z,9.10
2023-03-02T03:24:32.355Z,9.60
2023-03-02T03:25:32.314Z,9.70
2023-03-02T03:26:32.730Z,8.90
2023-03-02T03:27:32.313Z,8.60
2023-03-02T03:28:32.297Z,9.10
2023-03-02T03:29:32.296Z,8.50
2023-03-02T03:30:32.353Z,9.00
2023-03-02T03:31:32.246Z,8.60
2023-03-02T03:32:32.294Z,8.60
2023-03-02T03:33:32.240Z,8.70
2023-03-02T03:34:32.243Z,9.00
2023-03-02T03:35:32.242Z,8.40
2023-03-02T03:36:32.633Z,9.10
2023-03-02T03:37:32.195Z,9.10
2023-03-02T03:38:32.196Z,8.20
2023-03-02T03:39:32.194Z,8.00
2023-03-02T03:40:32.178Z,8.50
2023-03-02T03:41:32.148Z,8.70
2023-03-02T03:42:32.170Z,8.50
2023-03-02T03:43:32.126Z,8.90
2023-03-02T03:44:32.183Z,8.90
2023-03-02T03:45:32.115Z,8.70
2023-03-02T03:46:32.581Z,9.10
2023-03-02T03:47:32.082Z,8.10
2023-03-02T03:48:32.102Z,8.50
2023-03-02T03:49:32.077Z,8.80
2023-03-02T03:50:32.070Z,8.80
2023-03-02T03:51:32.063Z,8.70
2023-03-02T03:52:32.086Z,8.90
2023-03-02T03:53:32.018Z,8.90
2023-03-02T03:54:32.040Z,8.40
2023-03-02T03:55:32.030Z,9.20
2023-03-02T03:56:32.442Z,8.20
2023-03-02T03:57:32.002Z,8.40
2023-03-02T03:58:32.119Z,9.10
2023-03-02T03:59:31.973Z,9.10
2023-03-02T04:00:31.977Z,8.10
2023-03-02T04:01:32.068Z,8.50
2023-03-02T04:02:32.019Z,8.30
2023-03-02T04:03:31.938Z,8.70
2023-03-02T04:04:31.928Z,8.10
2023-03-02T04:05:31.917Z,8.90
2023-03-02T04:06:32.264Z,8.40
2023-03-02T04:07:31.874Z,8.10
2023-03-02T04:08:31.888Z,8.30
2023-03-02T04:09:31.896Z,8.60
2023-03-02T04:10:31.877Z,8.90
2023-03-02T04:11:31.840Z,8.30
2023-03-02T04:12:31.846Z,8.60
2023-03-02T04:13:31.813Z,8.70
2023-03-02T04:14:31.833Z,8.20
2023-03-02T04:15:31.932Z,8.40
2023-03-02T04:16:32.236Z,8.40
2023-03-02T04:17:31.769Z,8.40
2023-03-02T04:18:31.791Z,9.40
2023-03-02T04:19:31.766Z,9.90
2023-03-02T04:20:31.761Z,9.10
2023-03-02T04:21:31.764Z,8.80
2023-03-02T04:22:31.751Z,8.50
2023-03-02T04:23:31.724Z,9.10
2023-03-02T04:24:32.518Z,8.20
2023-03-02T04:25:31.697Z,8.60
2023-03-02T04:26:31.979Z,8.60
2023-03-02T04:27:31.727Z,9.00
2023-03-02T04:28:31.694Z,9.20
2023-03-02T04:29:31.658Z,8.40
2023-03-02T04:30:31.684Z,9.40
2023-03-02T04:31:31.710Z,8.50
2023-03-02T04:32:31.738Z,8.70
2023-03-02T04:33:31.648Z,8.70
2023-03-02T04:34:31.649Z,9.20
2023-03-02T04:35:31.640Z,8.90
2023-03-02T04:36:32.928Z,8.50
2023-03-02T04:37:31.588Z,9.10
2023-03-02T04:38:31.596Z,9.30
2023-03-02T04:39:31.576Z,8.20
2023-03-02T04:40:31.579Z,8.70
2023-03-02T04:41:31.550Z,8.70
2023-03-02T04:42:31.553Z,9.10
2023-03-02T04:43:31.533Z,8.70
2023-03-02T04:44:31.540Z,8.40
2023-03-02T04:45:31.526Z,8.70
2023-03-02T04:46:32.001Z,8.80
2023-03-02T04:47:31.487Z,8.70
2023-03-02T04:48:31.498Z,8.70
2023-03-02T04:49:31.470Z,8.00
2023-03-02T04:50:31.498Z,9.20
2023-03-02T04:51:31.469Z,8.90
2023-03-02T04:52:31.469Z,8.00
2023-03-02T04:53:31.431Z,8.40
2023-03-02T04:54:31.442Z,8.40
2023-03-02T04:55:31.413Z,8.60
2023-03-02T04:56:31.855Z,8.60
2023-03-02T04:57:31.415Z,7.90
2023-03-02T04:58:31.401Z,8.60
2023-03-02T04:59:31.369Z,8.00
2023-03-02T05:00:33.534Z,8.10
2023-03-02T05:01:31.346Z,8.60
2023-03-02T05:02:31.454Z,8.60
2023-03-02T05:03:31.348Z,8.30
2023-03-02T05:04:31.454Z,8.30
2023-03-02T05:05:31.311Z,8.10
2023-03-02T05:06:31.704Z,9.00
2023-03-02T05:07:31.290Z,8.40
2023-03-02T05:08:31.297Z,8.20
2023-03-02T05:09:31.295Z,8.70
2023-03-02T05:10:31.278Z,8.40
2023-03-02T05:11:31.268Z,8.60
2023-03-02T05:12:31.259Z,8.20
2023-03-02T05:13:31.224Z,8.50
2023-03-02T05:14:31.241Z,8.60
2023-03-02T05:15:31.227Z,9.40
2023-03-02T05:16:31.699Z,8.00
2023-03-02T05:17:31.206Z,8.40
2023-03-02T05:18:31.214Z,7.90
2023-03-02T05:19:31.191Z,9.50
2023-03-02T05:20:31.179Z,8.30
2023-03-02T05:21:31.182Z,8.30
2023-03-02T05:22:31.157Z,11.30
2023-03-02T05:23:31.132Z,9.40
2023-03-02T05:24:31.133Z,8.80
2023-03-02T05:25:31.104Z,8.90
2023-03-02T05:26:31.668Z,8.70
2023-03-02T05:27:31.097Z,8.30
2023-03-02T05:28:31.094Z,8.80
2023-03-02T05:29:31.066Z,8.30
2023-03-02T05:30:31.072Z,8.70
2023-03-02T05:31:31.106Z,8.70
2023-03-02T05:32:31.097Z,9.10
2023-03-02T05:33:31.046Z,8.80
2023-03-02T05:34:31.037Z,9.00
2023-03-02T05:35:31.083Z,8.20
2023-03-02T05:36:31.035Z,8.80
2023-03-02T05:37:30.982Z,9.30
2023-03-02T05:38:30.997Z,8.90
2023-03-02T05:39:30.978Z,8.90
2023-03-02T05:40:30.984Z,8.20
2023-03-02T05:41:30.942Z,8.30
2023-03-02T05:42:30.961Z,8.80
2023-03-02T05:43:30.921Z,8.90
2023-03-02T05:44:30.933Z,8.70
2023-03-02T05:45:30.920Z,9.00
2023-03-02T05:46:31.525Z,9.00
2023-03-02T05:47:30.884Z,8.60
2023-03-02T05:48:30.896Z,9.20
2023-03-02T05:49:30.868Z,9.40
2023-03-02T05:50:30.884Z,9.30
2023-03-02T05:51:30.884Z,8.50
2023-03-02T05:52:30.862Z,9.30
2023-03-02T05:53:30.823Z,9.50
2023-03-02T05:54:30.838Z,9.40
2023-03-02T05:55:30.802Z,8.80
2023-03-02T05:56:31.132Z,8.90
2023-03-02T05:57:30.808Z,9.40
2023-03-02T05:58:30.811Z,9.20
2023-03-02T05:59:30.770Z,9.40
2023-03-02T06:00:30.772Z,9.00
2023-03-02T06:01:31.123Z,9.10
2023-03-02T06:02:30.760Z,10.10
2023-03-02T06:03:30.774Z,9.40
2023-03-02T06:04:30.729Z,9.30
2023-03-02T06:05:30.700Z,9.10
2023-03-02T06:06:33.584Z,9.20
2023-03-02T06:07:30.678Z,9.00
2023-03-02T06:08:30.690Z,8.80
2023-03-02T06:09:30.673Z,9.80
2023-03-02T06:10:30.672Z,11.30
2023-03-02T06:11:30.639Z,8.90
2023-03-02T06:12:30.652Z,9.80
2023-03-02T06:13:30.617Z,9.50
2023-03-02T06:14:30.635Z,9.00
2023-03-02T06:15:30.644Z,9.10
2023-03-02T06:16:31.369Z,9.30
2023-03-02T06:17:30.576Z,9.10
2023-03-02T06:18:30.587Z,9.60
2023-03-02T06:19:30.556Z,9.90
2023-03-02T06:20:30.570Z,9.50
2023-03-02T06:21:30.559Z,9.00
2023-03-02T06:22:30.557Z,9.10
2023-03-02T06:23:30.520Z,10.00
2023-03-02T06:24:30.526Z,9.50
2023-03-02T06:25:30.497Z,9.60
2023-03-02T06:26:30.653Z,9.40
2023-03-02T06:27:30.502Z,9.80
2023-03-02T06:28:31.027Z,9.80
2023-03-02T06:29:30.456Z,9.50
2023-03-02T06:30:30.469Z,9.10
2023-03-02T06:31:30.488Z,9.60
2023-03-02T06:32:30.467Z,9.50
2023-03-02T06:33:30.436Z,9.20
2023-03-02T06:34:30.431Z,9.50
2023-03-02T06:35:30.543Z,8.90
2023-03-02T06:36:30.665Z,9.40
2023-03-02T06:37:30.377Z,9.20
2023-03-02T06:38:30.404Z,9.20
2023-03-02T06:39:30.414Z,9.40
2023-03-02T06:40:30.384Z,9.80
2023-03-02T06:41:30.681Z,9.30
2023-03-02T06:42:30.328Z,9.80
2023-03-02T06:43:30.338Z,9.90
2023-03-02T06:44:30.320Z,9.80
2023-03-02T06:45:30.507Z,9.80
2023-03-02T06:46:30.329Z,10.60
2023-03-02T06:47:30.302Z,10.30
2023-03-02T06:48:30.274Z,10.10
2023-03-02T06:49:30.294Z,9.70
2023-03-02T06:50:30.254Z,10.20
2023-03-02T06:51:30.290Z,10.40
2023-03-02T06:52:30.232Z,10.00
2023-03-02T06:53:30.244Z,10.60
2023-03-02T06:54:30.215Z,9.80
2023-03-02T06:55:30.230Z,9.40
2023-03-02T06:56:30.286Z,10.20
2023-03-02T06:57:30.222Z,9.10
2023-03-02T06:58:30.168Z,10.10
2023-03-02T06:59:30.181Z,9.70
2023-03-02T07:00:30.147Z,9.50
2023-03-02T07:01:30.335Z,9.30
2023-03-02T07:02:30.127Z,9.00
2023-03-02T07:03:30.257Z,9.60
2023-03-02T07:04:30.125Z,9.40
2023-03-02T07:05:30.119Z,10.10
2023-03-02T07:06:30.097Z,9.80
2023-03-02T07:07:30.098Z,9.80
2023-03-02T07:08:30.078Z,10.50
2023-03-02T07:09:30.101Z,9.90
2023-03-02T07:10:30.107Z,9.00
2023-03-02T07:11:30.307Z,9.50
2023-03-02T07:12:30.027Z,9.40
2023-03-02T07:13:30.035Z,9.40
2023-03-02T07:14:30.012Z,9.30
2023-03-02T07:15:30.052Z,9.50
2023-03-02T07:16:30.017Z,9.30
2023-03-02T07:17:29.993Z,9.70
2023-03-02T07:18:29.965Z,9.80
2023-03-02T07:19:29.972Z,9.80
2023-03-02T07:20:29.939Z,9.30
2023-03-02T07:21:29.999Z,9.30
2023-03-02T07:22:29.921Z,9.80
2023-03-02T07:23:29.933Z,9.40
2023-03-02T07:24:29.902Z,10.10
2023-03-02T07:25:29.919Z,9.60
2023-03-02T07:26:29.884Z,9.30
2023-03-02T07:27:29.930Z,8.80
2023-03-02T07:28:29.860Z,9.10
2023-03-02T07:29:29.875Z,9.10
2023-03-02T07:30:29.939Z,9.00
2023-03-02T07:31:29.906Z,8.70
2023-03-02T07:32:29.899Z,9.00
2023-03-02T07:33:29.857Z,8.90
2023-03-02T07:34:29.796Z,8.70
2023-03-02T07:35:29.871Z,9.70
2023-03-02T07:36:29.781Z,9.20
2023-03-02T07:37:29.791Z,9.60
2023-03-02T07:38:29.780Z,9.00
2023-03-02T07:39:29.765Z,8.80
2023-03-02T07:40:29.804Z,9.30
2023-03-02T07:41:29.776Z,9.10
2023-03-02T07:42:29.717Z,9.30
2023-03-02T07:43:29.732Z,9.20
2023-03-02T07:44:29.702Z,9.20
2023-03-02T07:45:29.731Z,9.30
2023-03-02T07:46:29.722Z,8.80
2023-03-02T07:47:29.693Z,8.90
2023-03-02T07:48:29.659Z,9.10
2023-03-02T07:49:29.672Z,9.40
2023-03-02T07:50:29.652Z,8.90
2023-03-02T07:51:29.669Z,9.40
2023-03-02T07:52:29.619Z,9.90
2023-03-02T07:53:29.636Z,9.50
2023-03-02T07:54:29.600Z,9.50
2023-03-02T07:55:29.611Z,9.00
2023-03-02T07:56:29.591Z,9.30
2023-03-02T07:57:29.616Z,9.30
2023-03-02T07:58:29.573Z,8.80
2023-03-02T07:59:29.565Z,9.30
2023-03-02T08:00:29.532Z,9.60
2023-03-02T08:01:29.574Z,8.80
2023-03-02T08:02:29.543Z,9.90
2023-03-02T08:03:29.549Z,9.40
2023-03-02T08:04:29.489Z,9.60
2023-03-02T08:05:29.505Z,8.60
2023-03-02T08:06:30.254Z,9.20
2023-03-02T08:07:29.483Z,8.90
2023-03-02T08:08:29.455Z,9.50
2023-03-02T08:09:29.483Z,9.00
2023-03-02T08:10:29.434Z,8.90
2023-03-02T08:11:29.442Z,8.80
2023-03-02T08:12:29.421Z,9.20
2023-03-02T08:13:29.426Z,9.10
2023-03-02T08:14:29.411Z,8.70
2023-03-02T08:15:29.431Z,9.00
2023-03-02T08:16:29.563Z,9.10
2023-03-02T08:17:29.380Z,9.30
2023-03-02T08:18:29.356Z,8.80
2023-03-02T08:19:29.367Z,9.00
2023-03-02T08:20:29.343Z,9.00
2023-03-02T08:21:29.370Z,9.50
2023-03-02T08:22:29.312Z,9.30
2023-03-02T08:23:29.347Z,9.50
2023-03-02T08:24:29.293Z,8.70
2023-03-02T08:25:29.304Z,8.80
2023-03-02T08:26:29.265Z,8.70
2023-03-02T08:27:29.288Z,8.80
2023-03-02T08:28:29.244Z,8.90
2023-03-02T08:29:29.258Z,8.70
2023-03-02T08:30:29.236Z,9.40
2023-03-02T08:31:29.301Z,9.20
2023-03-02T08:32:29.281Z,8.80
2023-03-02T08:33:29.244Z,10.30
2023-03-02T08:34:29.181Z,9.30
2023-03-02T08:35:29.269Z,8.70
2023-03-02T08:36:29.161Z,9.00
2023-03-02T08:37:29.174Z,9.00
2023-03-02T08:38:29.140Z,8.50
2023-03-02T08:39:29.166Z,8.80
2023-03-02T08:40:29.118Z,9.20
2023-03-02T08:41:29.136Z,9.20
2023-03-02T08:42:29.106Z,8.20
2023-03-02T08:43:29.112Z,8.90
2023-03-02T08:44:29.085Z,8.30
2023-03-02T08:45:29.172Z,8.90
2023-03-02T08:46:29.074Z,8.60
2023-03-02T08:47:29.090Z,8.90
2023-03-02T08:48:29.032Z,8.30
2023-03-02T08:49:29.046Z,9.60
2023-03-02T08:50:29.018Z,8.20
2023-03-02T08:51:29.044Z,8.70
2023-03-02T08:52:28.993Z,8.70
2023-03-02T08:53:29.002Z,9.30
2023-03-02T08:54:28.972Z,8.40
2023-03-02T08:55:29.014Z,8.80
2023-03-02T08:56:28.951Z,8.80
2023-03-02T08:57:28.972Z,8.90
2023-03-02T08:58:28.942Z,8.30
2023-03-02T08:59:28.944Z,8.60
2023-03-02T09:00:31.244Z,8.30
2023-03-02T09:01:28.972Z,7.90
2023-03-02T09:02:28.881Z,7.90
2023-03-02T09:03:28.914Z,7.70
2023-03-02T09:04:28.954Z,7.80
2023-03-02T09:05:28.877Z,8.20
2023-03-02T09:06:28.868Z,7.50
2023-03-02T09:07:28.857Z,7.80
2023-03-02T09:08:28.902Z,8.30
2023-03-02T09:09:28.860Z,7.60
2023-03-02T09:10:28.809Z,7.80
2023-03-02T09:11:28.832Z,7.50
2023-03-02T09:12:28.778Z,7.50
2023-03-02T09:13:28.790Z,7.60
2023-03-02T09:14:28.759Z,7.60
2023-03-02T09:15:28.792Z,7.60
2023-03-02T09:16:28.771Z,7.30
2023-03-02T09:17:28.784Z,7.30
2023-03-02T09:18:28.714Z,7.50
2023-03-02T09:19:28.732Z,7.70
2023-03-02T09:20:28.703Z,7.60
2023-03-02T09:21:28.731Z,7.40
2023-03-02T09:22:28.686Z,7.40
2023-03-02T09:23:28.688Z,7.10
2023-03-02T09:24:28.659Z,7.40
2023-03-02T09:25:28.669Z,6.90
2023-03-02T09:26:28.631Z,6.90
2023-03-02T09:27:28.743Z,7.40
2023-03-02T09:28:28.611Z,7.10
2023-03-02T09:29:28.625Z,7.00
2023-03-02T09:30:28.606Z,7.40
2023-03-02T09:31:30.379Z,7.00
2023-03-02T09:32:28.701Z,6.90
2023-03-02T09:33:28.610Z,7.40
2023-03-02T09:34:28.545Z,7.10
2023-03-02T09:35:28.564Z,7.00
2023-03-02T09:36:28.532Z,7.10
2023-03-02T09:37:28.582Z,7.00
2023-03-02T09:38:28.506Z,7.00
2023-03-02T09:39:28.544Z,6.70
2023-03-02T09:40:28.489Z,7.10
2023-03-02T09:41:28.505Z,6.80
2023-03-02T09:42:41.749Z,7.00
2023-03-02T09:43:28.483Z,7.20
2023-03-02T09:44:28.443Z,6.90
2023-03-02T09:45:28.484Z,7.20
2023-03-02T09:46:28.422Z,6.40
2023-03-02T09:47:35.561Z,7.50
2023-03-02T09:48:28.411Z,7.00
2023-03-02T09:49:28.420Z,7.20
2023-03-02T09:50:28.382Z,6.90
2023-03-02T09:51:28.545Z,6.60
2023-03-02T09:52:28.400Z,7.20
2023-03-02T09:53:28.370Z,6.80
2023-03-02T09:54:28.395Z,7.90
2023-03-02T09:55:28.350Z,8.20
2023-03-02T09:56:28.318Z,7.60
2023-03-02T09:57:28.359Z,8.00
2023-03-02T09:58:28.292Z,8.00
2023-03-02T09:59:28.313Z,7.40
2023-03-02T10:00:28.289Z,7.40
2023-03-02T10:01:28.289Z,6.90
2023-03-02T10:02:28.253Z,7.00
2023-03-02T10:03:28.365Z,7.70
2023-03-02T10:04:28.340Z,6.90
2023-03-02T10:05:28.246Z,7.10
2023-03-02T10:06:28.212Z,7.80
2023-03-02T10:07:28.225Z,7.10
2023-03-02T10:08:28.190Z,6.80
2023-03-02T10:09:28.308Z,7.40
2023-03-02T10:10:28.174Z,7.10
2023-03-02T10:11:28.182Z,6.60
2023-03-02T10:12:28.144Z,7.30
2023-03-02T10:13:28.160Z,7.60
2023-03-02T10:14:28.127Z,7.60
2023-03-02T10:15:28.152Z,7.10
2023-03-02T10:16:28.143Z,6.90
2023-03-02T10:17:28.114Z,7.30
2023-03-02T10:18:28.109Z,7.90
2023-03-02T10:19:28.095Z,7.20
2023-03-02T10:20:34.178Z,7.20
2023-03-02T10:21:28.094Z,7.40
2023-03-02T10:22:28.039Z,7.50
2023-03-02T10:23:28.053Z,7.90
2023-03-02T10:24:29.093Z,7.20
2023-03-02T10:25:28.031Z,7.10
2023-03-02T10:26:27.997Z,7.00
2023-03-02T10:27:28.037Z,8.30
2023-03-02T10:28:27.976Z,7.20
2023-03-02T10:29:27.988Z,7.10
2023-03-02T10:30:27.954Z,6.70
2023-03-02T10:31:28.086Z,7.20
2023-03-02T10:32:28.102Z,7.00
2023-03-02T10:33:27.973Z,6.50
2023-03-02T10:34:27.913Z,6.80
2023-03-02T10:35:27.950Z,6.70
2023-03-02T10:36:27.889Z,6.60
2023-03-02T10:37:27.974Z,6.50
2023-03-02T10:38:27.864Z,6.70
2023-03-02T10:39:27.912Z,6.20
2023-03-02T10:40:27.846Z,6.40
2023-03-02T10:41:27.858Z,6.50
2023-03-02T10:42:27.860Z,6.80
2023-03-02T10:43:27.842Z,6.40
2023-03-02T10:44:27.811Z,6.10
2023-03-02T10:45:27.862Z,6.70
2023-03-02T10:46:27.846Z,6.50
2023-03-02T10:47:27.808Z,6.40
2023-03-02T10:48:27.773Z,6.20
2023-03-02T10:49:27.779Z,6.30
2023-03-02T10:50:27.739Z,6.10
2023-03-02T10:51:27.780Z,6.00
2023-03-02T10:52:27.722Z,6.20
2023-03-02T10:53:27.734Z,5.90
2023-03-02T10:54:27.698Z,5.90
2023-03-02T10:55:27.710Z,5.80
2023-03-02T10:56:27.678Z,5.90
2023-03-02T10:57:27.679Z,5.60
2023-03-02T10:58:27.680Z,5.60
2023-03-02T10:59:27.650Z,5.80
2023-03-02T11:00:27.661Z,5.70
2023-03-02T11:01:27.664Z,6.20
2023-03-02T11:02:27.637Z,5.70
2023-03-02T11:03:27.631Z,6.00
2023-03-02T11:04:27.624Z,5.40
2023-03-02T11:05:27.594Z,5.50
2023-03-02T11:06:27.629Z,5.70
2023-03-02T11:07:27.557Z,6.10
2023-03-02T11:08:27.575Z,5.40
2023-03-02T11:09:27.565Z,5.50
2023-03-02T11:10:27.553Z,5.10
2023-03-02T11:11:27.526Z,5.20
2023-03-02T11:12:27.528Z,5.50
2023-03-02T11:13:27.497Z,5.30
2023-03-02T11:14:27.506Z,5.50
2023-03-02T11:15:27.496Z,5.20
2023-03-02T11:16:27.505Z,5.60
2023-03-02T11:17:27.448Z,5.50
2023-03-02T11:18:27.473Z,5.40
2023-03-02T11:19:27.430Z,5.70
2023-03-02T11:20:27.439Z,5.50
2023-03-02T11:21:27.435Z,6.00
2023-03-02T11:22:27.416Z,5.00
2023-03-02T11:23:27.383Z,5.50
2023-03-02T11:24:27.401Z,5.80
2023-03-02T11:25:27.377Z,5.00
2023-03-02T11:26:27.373Z,5.30
2023-03-02T11:27:27.356Z,5.60
2023-03-02T11:28:27.365Z,5.50
2023-03-02T11:29:27.334Z,5.50
2023-03-02T11:30:27.333Z,5.40
2023-03-02T11:31:27.350Z,5.70
2023-03-02T11:32:27.360Z,5.40
2023-03-02T11:33:27.333Z,5.80
2023-03-02T11:34:27.297Z,5.40
2023-03-02T11:35:27.299Z,5.50
2023-03-02T11:36:27.264Z,5.40
2023-03-02T11:37:27.233Z,5.80
2023-03-02T11:38:27.254Z,5.40
2023-03-02T11:39:27.303Z,5.30
2023-03-02T11:40:27.226Z,5.00
2023-03-02T11:41:27.196Z,5.00
2023-03-02T11:42:27.254Z,4.80
2023-03-02T11:43:27.165Z,5.00
2023-03-02T11:44:27.183Z,5.20
2023-03-02T11:45:27.164Z,5.10
2023-03-02T11:46:27.247Z,5.00
2023-03-02T11:47:27.180Z,4.80
2023-03-02T11:48:27.145Z,4.60
2023-03-02T11:49:27.105Z,4.60
2023-03-02T11:50:27.120Z,4.60
2023-03-02T11:51:27.111Z,4.60
2023-03-02T11:52:27.095Z,4.70
2023-03-02T11:53:27.174Z,4.60
2023-03-02T11:54:27.074Z,4.20
2023-03-02T11:55:27.056Z,4.50
2023-03-02T11:56:27.056Z,4.30
2023-03-02T11:57:27.034Z,4.70
2023-03-02T11:58:27.033Z,4.20
2023-03-02T11:59:28.537Z,4.40
2023-03-02T12:00:27.008Z,4.80
2023-03-02T12:01:26.992Z,4.50
2023-03-02T12:02:27.032Z,4.40
2023-03-02T12:03:26.966Z,4.50
2023-03-02T12:04:26.969Z,4.50
2023-03-02T12:05:27.009Z,4.20
2023-03-02T12:06:26.944Z,4.00
2023-03-02T12:07:26.910Z,4.20
2023-03-02T12:08:26.927Z,4.40
2023-03-02T12:09:27.010Z,4.60
2023-03-02T12:10:26.900Z,4.60
2023-03-02T12:11:26.868Z,4.70
2023-03-02T12:12:26.881Z,4.30
2023-03-02T12:13:26.845Z,4.40
2023-03-02T12:14:26.862Z,4.40
2023-03-02T12:15:26.860Z,4.50
2023-03-02T12:16:26.865Z,4.30
2023-03-02T12:17:26.826Z,4.30
2023-03-02T12:18:26.821Z,4.30
2023-03-02T12:19:26.788Z,4.00
2023-03-02T12:20:26.798Z,4.10
2023-03-02T12:21:26.787Z,4.30
2023-03-02T12:22:26.781Z,4.70
2023-03-02T12:23:26.748Z,5.00
2023-03-02T12:24:26.764Z,5.30
2023-03-02T12:25:26.718Z,5.80
2023-03-02T12:26:26.734Z,6.10
2023-03-02T12:27:26.821Z,5.90
2023-03-02T12:28:26.746Z,5.60
2023-03-02T12:29:26.713Z,5.60
2023-03-02T12:30:26.898Z,5.70
2023-03-02T12:31:26.700Z,5.20
2023-03-02T12:32:26.707Z,5.60
2023-03-02T12:33:26.673Z,5.50
2023-03-02T12:34:26.682Z,5.90
2023-03-02T12:35:26.716Z,5.70
2023-03-02T12:36:26.632Z,5.20
2023-03-02T12:37:26.597Z,5.10
2023-03-02T12:38:26.632Z,5.60
2023-03-02T12:39:26.584Z,5.50
2023-03-02T12:40:26.580Z,6.40
2023-03-02T12:41:26.547Z,5.40
2023-03-02T12:42:26.557Z,5.40
2023-03-02T12:43:26.528Z,5.40
2023-03-02T12:44:26.536Z,5.40
2023-03-02T12:45:26.525Z,5.70
2023-03-02T12:46:26.520Z,5.30
2023-03-02T12:47:27.173Z,5.40
2023-03-02T12:48:26.676Z,5.20
2023-03-02T12:49:26.458Z,5.50
2023-03-02T12:50:26.470Z,5.40
2023-03-02T12:51:26.602Z,5.50
2023-03-02T12:52:26.646Z,5.70
2023-03-02T12:53:26.423Z,5.30
2023-03-02T12:54:26.436Z,5.30
2023-03-02T12:55:26.398Z,5.30
2023-03-02T12:56:26.404Z,5.30
2023-03-02T12:57:26.413Z,5.40
2023-03-02T12:58:26.395Z,5.20
2023-03-02T12:59:26.354Z,5.00
2023-03-02T13:00:26.370Z,5.10
2023-03-02T13:01:26.449Z,5.10
2023-03-02T13:02:26.386Z,5.50
2023-03-02T13:03:26.393Z,4.80
2023-03-02T13:04:26.407Z,5.10
2023-03-02T13:05:26.291Z,4.90
2023-03-02T13:06:26.309Z,5.10
2023-03-02T13:07:26.274Z,5.00
2023-03-02T13:08:26.293Z,5.10
2023-03-02T13:09:26.270Z,5.00
2023-03-02T13:10:26.315Z,5.00
2023-03-02T13:11:26.224Z,5.20
2023-03-02T13:12:26.234Z,5.40
2023-03-02T13:13:26.234Z,5.00
2023-03-02T13:14:26.222Z,5.20
2023-03-02T13:15:26.209Z,5.20
2023-03-02T13:16:26.266Z,5.20
2023-03-02T13:17:26.155Z,5.10